createdAt,value
2018-01-11T00:00:27.159Z,990.27
2018-01-11T00:01:27.146Z,990.28
2018-01-11T00:02:27.124Z,990.25
2018-01-11T00:03:27.115Z,990.26
2018-01-11T00:04:27.085Z,990.27
2018-01-11T00:05:27.073Z,990.24
2018-01-11T00:06:27.079Z,990.26
2018-01-11T00:07:27.048Z,990.23
2018-01-11T00:08:27.044Z,990.26
2018-01-11T00:09:27.035Z,990.22
2018-01-11T00:10:26.983Z,990.21
2018-01-11T00:11:26.961Z,990.22
2018-01-11T00:12:26.945Z,990.25
2018-01-11T00:13:26.929Z,990.28
2018-01-11T00:14:26.910Z,990.26
2018-01-11T00:15:26.887Z,990.27
2018-01-11T00:16:26.865Z,990.29
2018-01-11T00:17:26.862Z,990.26
2018-01-11T00:18:26.832Z,990.24
2018-01-11T00:19:26.814Z,990.28
2018-01-11T00:20:26.793Z,990.29
2018-01-11T00:21:26.777Z,990.30
2018-01-11T00:22:26.761Z,990.26
2018-01-11T00:23:26.749Z,990.29
2018-01-11T00:24:26.733Z,990.29
2018-01-11T00:25:26.728Z,990.28
2018-01-11T00:26:26.721Z,990.27
2018-01-11T00:27:26.673Z,990.27
2018-01-11T00:28:26.650Z,990.26
2018-01-11T00:29:26.637Z,990.24
2018-01-11T00:30:26.618Z,990.24
2018-01-11T00:31:26.597Z,990.22
2018-01-11T00:32:26.587Z,990.24
2018-01-11T00:33:26.568Z,990.24
2018-01-11T00:34:26.606Z,990.23
2018-01-11T00:35:26.523Z,990.19
2018-01-11T00:36:26.515Z,990.19
2018-01-11T00:37:26.501Z,990.15
2018-01-11T00:38:26.478Z,990.20
2018-01-11T00:39:26.457Z,990.24
2018-01-11T00:40:26.444Z,990.17
2018-01-11T00:41:26.430Z,990.14
2018-01-11T00:42:26.399Z,990.17
2018-01-11T00:43:26.387Z,990.16
2018-01-11T00:44:26.370Z,990.20
2018-01-11T00:45:26.348Z,990.15
2018-01-11T00:46:26.331Z,990.17
2018-01-11T00:47:26.316Z,990.18
2018-01-11T00:48:26.300Z,990.19
2018-01-11T00:49:26.278Z,990.16
2018-01-11T00:50:26.256Z,990.15
2018-01-11T00:51:26.245Z,990.12
2018-01-11T00:52:26.220Z,990.13
2018-01-11T00:53:26.210Z,990.13
2018-01-11T00:54:26.182Z,990.12
2018-01-11T00:55:26.194Z,990.14
2018-01-11T00:56:26.156Z,990.12
2018-01-11T00:57:26.131Z,990.16
2018-01-11T00:58:26.122Z,990.12
2018-01-11T00:59:26.102Z,990.12
2018-01-11T01:00:26.076Z,990.16
2018-01-11T01:01:26.048Z,990.14
2018-01-11T01:02:26.057Z,990.15
2018-01-11T01:03:26.022Z,990.12
2018-01-11T01:04:26.009Z,990.15
2018-01-11T01:05:25.981Z,990.13
2018-01-11T01:06:25.994Z,990.19
2018-01-11T01:07:25.949Z,990.21
2018-01-11T01:08:25.965Z,990.23
2018-01-11T01:09:25.923Z,990.19
2018-01-11T01:10:25.898Z,990.23
2018-01-11T01:11:25.875Z,990.21
2018-01-11T01:12:25.859Z,990.21
2018-01-11T01:13:25.850Z,990.22
2018-01-11T01:14:25.840Z,990.19
2018-01-11T01:15:25.805Z,990.19
2018-01-11T01:16:25.784Z,990.24
2018-01-11T01:17:25.771Z,990.20
2018-01-11T01:18:25.751Z,990.18
2018-01-11T01:19:25.729Z,990.23
2018-01-11T01:20:25.716Z,990.20
2018-01-11T01:21:25.697Z,990.16
2018-01-11T01:22:25.675Z,990.19
2018-01-11T01:23:25.659Z,990.18
2018-01-11T01:24:25.636Z,990.20
2018-01-11T01:25:25.627Z,990.22
2018-01-11T01:26:25.601Z,990.23
2018-01-11T01:27:25.593Z,990.24
2018-01-11T01:28:25.571Z,990.24
2018-01-11T01:29:25.563Z,990.27
2018-01-11T01:30:25.532Z,990.23
2018-01-11T01:31:25.522Z,990.27
2018-01-11T01:32:25.494Z,990.22
2018-01-11T01:33:25.478Z,990.24
2018-01-11T01:34:25.978Z,990.24
2018-01-11T01:35:25.456Z,990.23
2018-01-11T01:36:25.427Z,990.25
2018-01-11T01:37:25.427Z,990.27
2018-01-11T01:38:25.386Z,990.28
2018-01-11T01:39:25.417Z,990.28
2018-01-11T01:40:25.357Z,990.26
2018-01-11T01:41:25.335Z,990.25
2018-01-11T01:42:25.390Z,990.25
2018-01-11T01:43:25.311Z,990.28
2018-01-11T01:44:25.287Z,990.31
2018-01-11T01:45:25.274Z,990.25
2018-01-11T01:46:25.246Z,990.28
2018-01-11T01:47:25.236Z,990.24
2018-01-11T01:48:25.207Z,990.27
2018-01-11T01:49:25.187Z,990.23
2018-01-11T01:50:25.166Z,990.24
2018-01-11T01:51:25.157Z,990.24
2018-01-11T01:52:25.136Z,990.22
2018-01-11T01:53:25.117Z,990.23
2018-01-11T01:54:25.098Z,990.25
2018-01-11T01:55:25.079Z,990.27
2018-01-11T01:56:25.076Z,990.29
2018-01-11T01:57:25.040Z,990.24
2018-01-11T01:58:25.027Z,990.24
2018-01-11T01:59:25.005Z,990.18
2018-01-11T02:00:24.990Z,990.19
2018-01-11T02:01:25.002Z,990.18
2018-01-11T02:02:24.960Z,990.14
2018-01-11T02:03:24.930Z,990.11
2018-01-11T02:04:24.914Z,990.15
2018-01-11T02:05:24.898Z,990.13
2018-01-11T02:06:24.891Z,990.13
2018-01-11T02:07:24.866Z,990.15
2018-01-11T02:08:24.856Z,990.14
2018-01-11T02:09:24.828Z,990.16
2018-01-11T02:10:24.805Z,990.16
2018-01-11T02:11:24.786Z,990.19
2018-01-11T02:12:24.782Z,990.22
2018-01-11T02:13:24.760Z,990.23
2018-01-11T02:14:24.757Z,990.28
2018-01-11T02:15:24.725Z,990.24
2018-01-11T02:16:24.715Z,990.18
2018-01-11T02:17:24.689Z,990.19
2018-01-11T02:18:24.671Z,990.21
2018-01-11T02:19:24.661Z,990.24
2018-01-11T02:20:24.632Z,990.27
2018-01-11T02:21:24.623Z,990.26
2018-01-11T02:22:24.600Z,990.24
2018-01-11T02:23:24.571Z,990.26
2018-01-11T02:24:24.571Z,990.20
2018-01-11T02:25:24.539Z,990.22
2018-01-11T02:26:24.533Z,990.23
2018-01-11T02:27:24.523Z,990.26
2018-01-11T02:28:24.510Z,990.22
2018-01-11T02:29:24.475Z,990.24
2018-01-11T02:30:24.446Z,990.25
2018-01-11T02:31:24.430Z,990.30
2018-01-11T02:32:24.418Z,990.28
2018-01-11T02:33:24.401Z,990.32
2018-01-11T02:34:24.379Z,990.33
2018-01-11T02:35:24.376Z,990.33
2018-01-11T02:36:24.376Z,990.34
2018-01-11T02:37:24.320Z,990.32
2018-01-11T02:38:24.298Z,990.30
2018-01-11T02:39:24.282Z,990.34
2018-01-11T02:40:24.276Z,990.29
2018-01-11T02:41:24.256Z,990.35
2018-01-11T02:42:24.257Z,990.34
2018-01-11T02:43:24.221Z,990.36
2018-01-11T02:44:24.202Z,990.37
2018-01-11T02:45:24.191Z,990.35
2018-01-11T02:46:24.159Z,990.34
2018-01-11T02:47:24.152Z,990.37
2018-01-11T02:48:24.140Z,990.39
2018-01-11T02:49:24.140Z,990.39
2018-01-11T02:50:24.095Z,990.39
2018-01-11T02:51:24.096Z,990.42
2018-01-11T02:52:24.066Z,990.45
2018-01-11T02:53:24.080Z,990.47
2018-01-11T02:54:24.014Z,990.47
2018-01-11T02:55:24.002Z,990.45
2018-01-11T02:56:23.977Z,990.46
2018-01-11T02:57:23.964Z,990.44
2018-01-11T02:58:23.949Z,990.45
2018-01-11T02:59:23.929Z,990.45
2018-01-11T03:00:23.906Z,990.46
2018-01-11T03:01:23.907Z,990.41
2018-01-11T03:02:23.875Z,990.49
2018-01-11T03:03:23.891Z,990.46
2018-01-11T03:04:23.843Z,990.48
2018-01-11T03:05:23.830Z,990.48
2018-01-11T03:06:23.830Z,990.48
2018-01-11T03:07:23.786Z,990.47
2018-01-11T03:08:23.859Z,990.47
2018-01-11T03:09:23.750Z,990.45
2018-01-11T03:10:23.731Z,990.46
2018-01-11T03:11:23.721Z,990.48
2018-01-11T03:12:23.748Z,990.52
2018-01-11T03:13:23.673Z,990.57
2018-01-11T03:14:23.664Z,990.54
2018-01-11T03:15:23.638Z,990.51
2018-01-11T03:16:23.619Z,990.52
2018-01-11T03:17:23.613Z,990.52
2018-01-11T03:18:23.584Z,990.51
2018-01-11T03:19:23.584Z,990.52
2018-01-11T03:20:23.546Z,990.51
2018-01-11T03:21:23.543Z,990.50
2018-01-11T03:22:23.517Z,990.50
2018-01-11T03:23:23.501Z,990.44
2018-01-11T03:24:23.527Z,990.45
2018-01-11T03:25:23.501Z,990.46
2018-01-11T03:26:23.444Z,990.44
2018-01-11T03:27:23.431Z,990.50
2018-01-11T03:28:23.405Z,990.46
2018-01-11T03:29:23.444Z,990.52
2018-01-11T03:30:23.375Z,990.48
2018-01-11T03:31:23.357Z,990.48
2018-01-11T03:32:23.351Z,990.49
2018-01-11T03:33:23.321Z,990.47
2018-01-11T03:34:23.307Z,990.49
2018-01-11T03:35:23.293Z,990.51
2018-01-11T03:36:23.272Z,990.51
2018-01-11T03:37:23.243Z,990.54
2018-01-11T03:38:23.244Z,990.52
2018-01-11T03:39:23.240Z,990.54
2018-01-11T03:40:23.197Z,990.54
2018-01-11T03:41:23.174Z,990.53
2018-01-11T03:42:23.208Z,990.57
2018-01-11T03:43:23.136Z,990.52
2018-01-11T03:44:23.137Z,990.57
2018-01-11T03:45:23.094Z,990.52
2018-01-11T03:46:23.078Z,990.53
2018-01-11T03:47:23.066Z,990.54
2018-01-11T03:48:23.056Z,990.54
2018-01-11T03:49:23.046Z,990.58
2018-01-11T03:50:23.014Z,990.59
2018-01-11T03:51:22.996Z,990.58
2018-01-11T03:52:22.986Z,990.57
2018-01-11T03:53:22.961Z,990.61
2018-01-11T03:54:22.942Z,990.59
2018-01-11T03:55:22.961Z,990.59
2018-01-11T03:56:22.910Z,990.64
2018-01-11T03:57:22.890Z,990.62
2018-01-11T03:58:22.881Z,990.62
2018-01-11T03:59:22.865Z,990.65
2018-01-11T04:00:22.836Z,990.65
2018-01-11T04:01:22.823Z,990.64
2018-01-11T04:02:22.805Z,990.64
2018-01-11T04:03:22.787Z,990.67
2018-01-11T04:04:22.759Z,990.67
2018-01-11T04:05:22.749Z,990.66
2018-01-11T04:06:22.738Z,990.66
2018-01-11T04:07:22.723Z,990.70
2018-01-11T04:08:22.735Z,990.70
2018-01-11T04:09:22.675Z,990.69
2018-01-11T04:10:22.654Z,990.70
2018-01-11T04:11:22.643Z,990.72
2018-01-11T04:12:22.621Z,990.71
2018-01-11T04:13:22.597Z,990.73
2018-01-11T04:14:22.592Z,990.72
2018-01-11T04:15:22.569Z,990.76
2018-01-11T04:16:22.545Z,990.77
2018-01-11T04:17:22.559Z,990.77
2018-01-11T04:18:22.511Z,990.80
2018-01-11T04:19:22.488Z,990.79
2018-01-11T04:20:22.498Z,990.82
2018-01-11T04:21:22.453Z,990.79
2018-01-11T04:22:22.431Z,990.81
2018-01-11T04:23:22.428Z,990.78
2018-01-11T04:24:22.479Z,990.79
2018-01-11T04:25:22.392Z,990.79
2018-01-11T04:26:22.364Z,990.80
2018-01-11T04:27:22.352Z,990.82
2018-01-11T04:28:22.377Z,990.83
2018-01-11T04:29:22.322Z,990.80
2018-01-11T04:30:22.296Z,990.85
2018-01-11T04:31:22.277Z,990.87
2018-01-11T04:32:22.259Z,990.88
2018-01-11T04:33:22.252Z,990.92
2018-01-11T04:34:22.239Z,990.88
2018-01-11T04:35:22.201Z,990.88
2018-01-11T04:36:22.183Z,990.89
2018-01-11T04:37:22.168Z,990.90
2018-01-11T04:38:22.146Z,990.93
2018-01-11T04:39:22.133Z,990.92
2018-01-11T04:40:22.130Z,990.92
2018-01-11T04:41:22.089Z,990.95
2018-01-11T04:42:22.076Z,990.91
2018-01-11T04:43:22.056Z,990.95
2018-01-11T04:44:22.034Z,990.96
2018-01-11T04:45:22.078Z,990.96
2018-01-11T04:46:22.025Z,990.96
2018-01-11T04:47:22.015Z,990.94
2018-01-11T04:48:21.963Z,990.96
2018-01-11T04:49:21.940Z,990.96
2018-01-11T04:50:21.924Z,990.96
2018-01-11T04:51:21.905Z,990.95
2018-01-11T04:52:21.895Z,990.97
2018-01-11T04:53:21.873Z,990.99
2018-01-11T04:54:21.857Z,990.96
2018-01-11T04:55:21.858Z,990.94
2018-01-11T04:56:21.874Z,990.93
2018-01-11T04:57:21.803Z,990.96
2018-01-11T04:58:21.782Z,990.95
2018-01-11T04:59:21.828Z,990.96
2018-01-11T05:00:21.757Z,990.96
2018-01-11T05:01:21.750Z,990.90
2018-01-11T05:02:21.706Z,990.88
2018-01-11T05:03:21.691Z,990.87
2018-01-11T05:04:21.671Z,990.88
2018-01-11T05:05:21.651Z,990.88
2018-01-11T05:06:21.647Z,990.87
2018-01-11T05:07:21.613Z,990.87
2018-01-11T05:08:21.622Z,990.89
2018-01-11T05:09:21.577Z,990.93
2018-01-11T05:10:21.581Z,990.90
2018-01-11T05:11:21.546Z,990.93
2018-01-11T05:12:21.580Z,990.92
2018-01-11T05:13:21.506Z,990.92
2018-01-11T05:14:21.482Z,990.92
2018-01-11T05:15:21.466Z,990.95
2018-01-11T05:16:21.444Z,990.93
2018-01-11T05:17:21.427Z,990.92
2018-01-11T05:18:21.408Z,990.94
2018-01-11T05:19:21.389Z,990.93
2018-01-11T05:20:21.364Z,990.94
2018-01-11T05:21:21.354Z,991.00
2018-01-11T05:22:21.335Z,991.01
2018-01-11T05:23:21.312Z,991.05
2018-01-11T05:24:21.296Z,991.07
2018-01-11T05:25:21.277Z,991.07
2018-01-11T05:26:21.255Z,991.10
2018-01-11T05:27:21.268Z,991.15
2018-01-11T05:28:21.229Z,991.13
2018-01-11T05:29:21.198Z,991.15
2018-01-11T05:30:21.182Z,991.19
2018-01-11T05:31:21.165Z,991.18
2018-01-11T05:32:21.144Z,991.20
2018-01-11T05:33:21.118Z,991.20
2018-01-11T05:34:21.098Z,991.15
2018-01-11T05:35:21.082Z,991.16
2018-01-11T05:36:21.069Z,991.18
2018-01-11T05:37:21.052Z,991.21
2018-01-11T05:38:21.025Z,991.17
2018-01-11T05:39:21.032Z,991.18
2018-01-11T05:40:20.991Z,991.17
2018-01-11T05:41:20.978Z,991.20
2018-01-11T05:42:20.956Z,991.17
2018-01-11T05:43:20.959Z,991.18
2018-01-11T05:44:20.936Z,991.18
2018-01-11T05:45:20.902Z,991.17
2018-01-11T05:46:20.870Z,991.16
2018-01-11T05:47:20.892Z,991.16
2018-01-11T05:48:20.841Z,991.17
2018-01-11T05:49:20.809Z,991.14
2018-01-11T05:50:20.803Z,991.17
2018-01-11T05:51:20.775Z,991.19
2018-01-11T05:52:20.756Z,991.20
2018-01-11T05:53:20.737Z,991.25
2018-01-11T05:54:20.724Z,991.26
2018-01-11T05:55:20.718Z,991.29
2018-01-11T05:56:20.706Z,991.29
2018-01-11T05:57:20.666Z,991.30
2018-01-11T05:58:20.634Z,991.29
2018-01-11T05:59:20.619Z,991.24
2018-01-11T06:00:20.593Z,991.27
2018-01-11T06:01:20.590Z,991.29
2018-01-11T06:02:20.568Z,991.31
2018-01-11T06:03:20.546Z,991.34
2018-01-11T06:04:20.523Z,991.36
2018-01-11T06:05:20.504Z,991.37
2018-01-11T06:06:20.495Z,991.37
2018-01-11T06:07:20.472Z,991.40
2018-01-11T06:08:20.472Z,991.43
2018-01-11T06:09:20.428Z,991.44
2018-01-11T06:10:20.415Z,991.43
2018-01-11T06:11:20.393Z,991.45
2018-01-11T06:12:20.378Z,991.45
2018-01-11T06:13:20.359Z,991.47
2018-01-11T06:14:20.340Z,991.48
2018-01-11T06:15:20.308Z,991.52
2018-01-11T06:16:20.289Z,991.48
2018-01-11T06:17:20.270Z,991.52
2018-01-11T06:18:20.248Z,991.55
2018-01-11T06:19:20.232Z,991.55
2018-01-11T06:20:20.209Z,991.52
2018-01-11T06:21:20.198Z,991.55
2018-01-11T06:22:20.173Z,991.52
2018-01-11T06:23:20.153Z,991.54
2018-01-11T06:24:20.156Z,991.55
2018-01-11T06:25:20.134Z,991.51
2018-01-11T06:26:20.118Z,991.58
2018-01-11T06:27:20.074Z,991.57
2018-01-11T06:28:20.048Z,991.60
2018-01-11T06:29:20.036Z,991.59
2018-01-11T06:30:20.020Z,991.63
2018-01-11T06:31:20.003Z,991.67
2018-01-11T06:32:19.974Z,991.65
2018-01-11T06:33:19.961Z,991.67
2018-01-11T06:34:19.939Z,991.65
2018-01-11T06:35:19.926Z,991.65
2018-01-11T06:36:19.900Z,991.66
2018-01-11T06:37:19.884Z,991.65
2018-01-11T06:38:19.852Z,991.70
2018-01-11T06:39:19.836Z,991.67
2018-01-11T06:40:19.823Z,991.69
2018-01-11T06:41:19.798Z,991.69
2018-01-11T06:42:19.778Z,991.66
2018-01-11T06:43:19.756Z,991.70
2018-01-11T06:44:19.740Z,991.74
2018-01-11T06:45:19.717Z,991.72
2018-01-11T06:46:19.692Z,991.72
2018-01-11T06:47:19.682Z,991.75
2018-01-11T06:48:19.656Z,991.79
2018-01-11T06:49:19.635Z,991.80
2018-01-11T06:50:19.616Z,991.80
2018-01-11T06:51:19.595Z,991.81
2018-01-11T06:52:19.573Z,991.81
2018-01-11T06:53:19.554Z,991.87
2018-01-11T06:54:19.537Z,991.90
2018-01-11T06:55:19.525Z,991.89
2018-01-11T06:56:19.499Z,991.91
2018-01-11T06:57:19.490Z,991.96
2018-01-11T06:58:19.464Z,991.96
2018-01-11T06:59:19.439Z,992.00
2018-01-11T07:00:19.432Z,992.02
2018-01-11T07:01:19.403Z,992.01
2018-01-11T07:02:19.383Z,992.03
2018-01-11T07:03:19.364Z,992.02
2018-01-11T07:04:19.335Z,992.05
2018-01-11T07:05:19.325Z,992.06
2018-01-11T07:06:19.306Z,992.06
2018-01-11T07:07:19.293Z,992.09
2018-01-11T07:08:19.268Z,992.10
2018-01-11T07:09:19.252Z,992.11
2018-01-11T07:10:19.260Z,992.12
2018-01-11T07:11:19.213Z,992.11
2018-01-11T07:12:19.191Z,992.15
2018-01-11T07:13:19.166Z,992.15
2018-01-11T07:14:19.143Z,992.20
2018-01-11T07:15:19.130Z,992.16
2018-01-11T07:16:19.108Z,992.17
2018-01-11T07:17:19.091Z,992.16
2018-01-11T07:18:19.066Z,992.18
2018-01-11T07:19:19.050Z,992.19
2018-01-11T07:20:19.031Z,992.22
2018-01-11T07:21:19.015Z,992.23
2018-01-11T07:22:18.993Z,992.26
2018-01-11T07:23:18.993Z,992.28
2018-01-11T07:24:18.954Z,992.28
2018-01-11T07:25:18.941Z,992.27
2018-01-11T07:26:18.913Z,992.30
2018-01-11T07:27:18.896Z,992.30
2018-01-11T07:28:18.875Z,992.28
2018-01-11T07:29:18.858Z,992.32
2018-01-11T07:30:18.849Z,992.34
2018-01-11T07:31:18.820Z,992.39
2018-01-11T07:32:18.799Z,992.38
2018-01-11T07:33:18.801Z,992.38
2018-01-11T07:34:18.766Z,992.39
2018-01-11T07:35:18.741Z,992.40
2018-01-11T07:36:18.721Z,992.42
2018-01-11T07:37:18.737Z,992.41
2018-01-11T07:38:18.693Z,992.43
2018-01-11T07:39:18.667Z,992.44
2018-01-11T07:40:18.651Z,992.42
2018-01-11T07:41:18.632Z,992.48
2018-01-11T07:42:18.613Z,992.47
2018-01-11T07:43:18.598Z,992.43
2018-01-11T07:44:18.575Z,992.42
2018-01-11T07:45:18.550Z,992.48
2018-01-11T07:46:18.537Z,992.44
2018-01-11T07:47:18.524Z,992.44
2018-01-11T07:48:18.495Z,992.43
2018-01-11T07:49:18.479Z,992.46
2018-01-11T07:50:18.461Z,992.47
2018-01-11T07:51:18.434Z,992.47
2018-01-11T07:52:18.422Z,992.49
2018-01-11T07:53:18.412Z,992.48
2018-01-11T07:54:18.398Z,992.51
2018-01-11T07:55:18.369Z,992.57
2018-01-11T07:56:18.346Z,992.51
2018-01-11T07:57:18.330Z,992.61
2018-01-11T07:58:18.318Z,992.61
2018-01-11T07:59:18.286Z,992.62
2018-01-11T08:00:18.266Z,992.61
2018-01-11T08:01:18.247Z,992.64
2018-01-11T08:02:18.231Z,992.63
2018-01-11T08:03:18.223Z,992.61
2018-01-11T08:04:18.195Z,992.63
2018-01-11T08:05:18.177Z,992.65
2018-01-11T08:06:18.155Z,992.65
2018-01-11T08:07:18.143Z,992.65
2018-01-11T08:08:18.124Z,992.66
2018-01-11T08:09:18.101Z,992.66
2018-01-11T08:10:18.079Z,992.70
2018-01-11T08:11:18.066Z,992.68
2018-01-11T08:12:18.046Z,992.72
2018-01-11T08:13:18.025Z,992.71
2018-01-11T08:14:18.005Z,992.75
2018-01-11T08:15:17.986Z,992.73
2018-01-11T08:16:17.972Z,992.79
2018-01-11T08:17:17.937Z,992.76
2018-01-11T08:18:17.934Z,992.78
2018-01-11T08:19:17.915Z,992.76
2018-01-11T08:20:17.925Z,992.76
2018-01-11T08:21:17.880Z,992.79
2018-01-11T08:22:17.854Z,992.80
2018-01-11T08:23:17.838Z,992.79
2018-01-11T08:24:17.822Z,992.81
2018-01-11T08:25:17.798Z,992.79
2018-01-11T08:26:17.795Z,992.78
2018-01-11T08:27:17.756Z,992.83
2018-01-11T08:28:17.741Z,992.84
2018-01-11T08:29:17.721Z,992.86
2018-01-11T08:30:17.709Z,992.89
2018-01-11T08:31:17.684Z,992.87
2018-01-11T08:32:17.671Z,992.93
2018-01-11T08:33:17.648Z,992.92
2018-01-11T08:34:17.636Z,992.92
2018-01-11T08:35:17.609Z,992.93
2018-01-11T08:36:17.593Z,992.93
2018-01-11T08:37:17.593Z,992.94
2018-01-11T08:38:17.555Z,992.97
2018-01-11T08:39:17.552Z,992.97
2018-01-11T08:40:17.519Z,992.96
2018-01-11T08:41:17.500Z,993.00
2018-01-11T08:42:17.491Z,993.01
2018-01-11T08:43:17.462Z,993.01
2018-01-11T08:44:17.450Z,993.06
2018-01-11T08:45:17.430Z,993.06
2018-01-11T08:46:17.414Z,993.03
2018-01-11T08:47:17.388Z,993.03
2018-01-11T08:48:17.372Z,993.06
2018-01-11T08:49:17.356Z,993.03
2018-01-11T08:50:17.341Z,993.03
2018-01-11T08:51:17.318Z,993.07
2018-01-11T08:52:17.310Z,993.08
2018-01-11T08:53:17.286Z,993.09
2018-01-11T08:54:17.260Z,993.13
2018-01-11T08:55:17.250Z,993.10
2018-01-11T08:56:17.225Z,993.12
2018-01-11T08:57:17.212Z,993.14
2018-01-11T08:58:17.195Z,993.17
2018-01-11T08:59:17.176Z,993.18
2018-01-11T09:00:17.160Z,993.19
2018-01-11T09:01:17.141Z,993.24
2018-01-11T09:02:17.119Z,993.20
2018-01-11T09:03:17.099Z,993.22
2018-01-11T09:04:17.080Z,993.26
2018-01-11T09:05:17.088Z,993.30
2018-01-11T09:06:17.051Z,993.29
2018-01-11T09:07:17.039Z,993.28
2018-01-11T09:08:17.013Z,993.37
2018-01-11T09:09:16.999Z,993.35
2018-01-11T09:10:16.977Z,993.35
2018-01-11T09:11:16.954Z,993.32
2018-01-11T09:12:16.935Z,993.42
2018-01-11T09:13:16.922Z,993.39
2018-01-11T09:14:16.899Z,993.43
2018-01-11T09:15:16.880Z,993.42
2018-01-11T09:16:16.864Z,993.47
2018-01-11T09:17:16.851Z,993.43
2018-01-11T09:18:16.825Z,993.46
2018-01-11T09:19:16.816Z,993.49
2018-01-11T09:20:16.810Z,993.54
2018-01-11T09:21:16.782Z,993.55
2018-01-11T09:22:16.769Z,993.50
2018-01-11T09:23:16.744Z,993.52
2018-01-11T09:24:16.728Z,993.56
2018-01-11T09:25:16.711Z,993.58
2018-01-11T09:26:16.692Z,993.56
2018-01-11T09:27:16.674Z,993.57
2018-01-11T09:28:16.656Z,993.64
2018-01-11T09:29:16.637Z,993.59
2018-01-11T09:30:16.623Z,993.64
2018-01-11T09:31:16.596Z,993.63
2018-01-11T09:32:16.580Z,993.64
2018-01-11T09:33:16.562Z,993.66
2018-01-11T09:34:16.548Z,993.65
2018-01-11T09:35:16.526Z,993.65
2018-01-11T09:36:16.509Z,993.67
2018-01-11T09:37:16.510Z,993.68
2018-01-11T09:38:16.475Z,993.70
2018-01-11T09:39:16.458Z,993.71
2018-01-11T09:40:16.442Z,993.73
2018-01-11T09:41:16.424Z,993.74
2018-01-11T09:42:16.399Z,993.70
2018-01-11T09:43:16.385Z,993.73
2018-01-11T09:44:16.370Z,993.72
2018-01-11T09:45:16.353Z,993.75
2018-01-11T09:46:16.328Z,993.76
2018-01-11T09:47:16.318Z,993.73
2018-01-11T09:48:16.302Z,993.76
2018-01-11T09:49:16.280Z,993.74
2018-01-11T09:50:16.279Z,993.75
2018-01-11T09:51:16.276Z,993.76
2018-01-11T09:52:16.229Z,993.76
2018-01-11T09:53:16.210Z,993.78
2018-01-11T09:54:16.194Z,993.81
2018-01-11T09:55:16.172Z,993.83
2018-01-11T09:56:16.157Z,993.81
2018-01-11T09:57:16.134Z,993.79
2018-01-11T09:58:16.121Z,993.78
2018-01-11T09:59:16.104Z,993.79
2018-01-11T10:00:16.089Z,993.82
2018-01-11T10:01:16.084Z,993.78
2018-01-11T10:02:16.051Z,993.80
2018-01-11T10:03:16.029Z,993.84
2018-01-11T10:04:16.015Z,993.82
2018-01-11T10:05:15.998Z,993.81
2018-01-11T10:06:15.976Z,993.80
2018-01-11T10:07:15.963Z,993.79
2018-01-11T10:08:15.979Z,993.81
2018-01-11T10:09:15.937Z,993.81
2018-01-11T10:10:15.906Z,993.83
2018-01-11T10:11:15.895Z,993.81
2018-01-11T10:12:15.872Z,993.83
2018-01-11T10:13:15.855Z,993.84
2018-01-11T10:14:15.841Z,993.85
2018-01-11T10:15:15.824Z,993.83
2018-01-11T10:16:15.809Z,993.82
2018-01-11T10:17:15.788Z,993.84
2018-01-11T10:18:15.766Z,993.86
2018-01-11T10:19:15.746Z,993.85
2018-01-11T10:20:15.749Z,993.86
2018-01-11T10:21:15.721Z,993.86
2018-01-11T10:22:15.698Z,993.89
2018-01-11T10:23:15.686Z,993.85
2018-01-11T10:24:15.666Z,993.86
2018-01-11T10:25:15.649Z,993.84
2018-01-11T10:26:15.634Z,993.81
2018-01-11T10:27:15.612Z,993.82
2018-01-11T10:28:15.595Z,993.84
2018-01-11T10:29:15.582Z,993.85
2018-01-11T10:30:15.557Z,993.85
2018-01-11T10:31:15.550Z,993.87
2018-01-11T10:32:15.532Z,993.88
2018-01-11T10:33:15.512Z,993.89
2018-01-11T10:34:15.503Z,993.90
2018-01-11T10:35:15.480Z,993.87
2018-01-11T10:36:15.462Z,993.95
2018-01-11T10:37:15.439Z,993.90
2018-01-11T10:38:15.426Z,993.92
2018-01-11T10:39:15.410Z,993.91
2018-01-11T10:40:15.396Z,993.93
2018-01-11T10:41:15.380Z,993.89
2018-01-11T10:42:15.364Z,993.90
2018-01-11T10:43:15.347Z,993.90
2018-01-11T10:44:15.325Z,993.86
2018-01-11T10:45:15.309Z,993.87
2018-01-11T10:46:15.297Z,993.90
2018-01-11T10:47:15.275Z,993.89
2018-01-11T10:48:15.255Z,993.94
2018-01-11T10:49:15.264Z,993.94
2018-01-11T10:50:15.220Z,993.92
2018-01-11T10:51:15.217Z,993.95
2018-01-11T10:52:15.204Z,993.97
2018-01-11T10:53:15.178Z,993.94
2018-01-11T10:54:15.175Z,993.96
2018-01-11T10:55:15.136Z,993.98
2018-01-11T10:56:15.127Z,993.94
2018-01-11T10:57:15.105Z,993.97
2018-01-11T10:58:15.095Z,993.94
2018-01-11T10:59:15.102Z,993.94
2018-01-11T11:00:15.056Z,993.96
2018-01-11T11:01:15.034Z,993.94
2018-01-11T11:02:15.025Z,993.90
2018-01-11T11:03:15.019Z,993.91
2018-01-11T11:04:14.989Z,993.92
2018-01-11T11:05:14.973Z,993.94
2018-01-11T11:06:14.970Z,993.96
2018-01-11T11:07:14.947Z,993.96
2018-01-11T11:08:14.925Z,993.96
2018-01-11T11:09:14.906Z,993.97
2018-01-11T11:10:14.896Z,993.96
2018-01-11T11:11:14.871Z,993.99
2018-01-11T11:12:14.852Z,994.02
2018-01-11T11:13:14.836Z,994.02
2018-01-11T11:14:14.826Z,994.00
2018-01-11T11:15:14.810Z,993.95
2018-01-11T11:16:14.796Z,993.95
2018-01-11T11:17:14.774Z,993.99
2018-01-11T11:18:14.758Z,993.96
2018-01-11T11:19:14.735Z,993.94
2018-01-11T11:20:14.729Z,993.97
2018-01-11T11:21:14.716Z,993.93
2018-01-11T11:22:14.736Z,993.98
2018-01-11T11:23:14.674Z,993.96
2018-01-11T11:24:14.656Z,993.96
2018-01-11T11:25:14.812Z,993.96
2018-01-11T11:26:14.649Z,993.95
2018-01-11T11:27:14.617Z,993.92
2018-01-11T11:28:14.590Z,993.96
2018-01-11T11:29:14.587Z,993.96
2018-01-11T11:30:14.561Z,993.92
2018-01-11T11:31:14.548Z,993.93
2018-01-11T11:32:14.526Z,993.93
2018-01-11T11:33:14.526Z,993.92
2018-01-11T11:34:14.501Z,993.91
2018-01-11T11:35:14.488Z,993.91
2018-01-11T11:36:14.472Z,993.91
2018-01-11T11:37:14.456Z,993.93
2018-01-11T11:38:14.437Z,993.92
2018-01-11T11:39:14.440Z,993.93
2018-01-11T11:40:14.442Z,993.95
2018-01-11T11:41:14.404Z,993.99
2018-01-11T11:42:14.379Z,994.03
2018-01-11T11:43:14.369Z,993.97
2018-01-11T11:44:14.350Z,993.98
2018-01-11T11:45:14.353Z,993.97
2018-01-11T11:46:14.309Z,994.01
2018-01-11T11:47:14.296Z,993.99
2018-01-11T11:48:14.283Z,993.95
2018-01-11T11:49:14.264Z,993.96
2018-01-11T11:50:14.248Z,993.99
2018-01-11T11:51:14.232Z,994.00
2018-01-11T11:52:14.226Z,993.98
2018-01-11T11:53:14.207Z,993.95
2018-01-11T11:54:14.184Z,993.98
2018-01-11T11:55:14.178Z,993.96
2018-01-11T11:56:14.159Z,993.97
2018-01-11T11:57:14.146Z,993.98
2018-01-11T11:58:14.126Z,994.02
2018-01-11T11:59:14.115Z,994.00
2018-01-11T12:00:14.092Z,994.00
2018-01-11T12:01:14.079Z,994.02
2018-01-11T12:02:14.072Z,994.03
2018-01-11T12:03:14.060Z,994.02
2018-01-11T12:04:14.047Z,994.03
2018-01-11T12:05:14.039Z,994.00
2018-01-11T12:06:14.012Z,994.05
2018-01-11T12:07:14.005Z,994.03
2018-01-11T12:08:13.980Z,994.01
2018-01-11T12:09:13.967Z,994.04
2018-01-11T12:10:13.952Z,994.02
2018-01-11T12:11:13.935Z,994.01
2018-01-11T12:12:13.935Z,994.01
2018-01-11T12:13:13.903Z,994.02
2018-01-11T12:14:13.897Z,993.98
2018-01-11T12:15:13.878Z,993.99
2018-01-11T12:16:13.859Z,994.01
2018-01-11T12:17:13.849Z,993.98
2018-01-11T12:18:13.830Z,993.99
2018-01-11T12:19:13.824Z,993.98
2018-01-11T12:20:13.804Z,993.99
2018-01-11T12:21:13.792Z,993.97
2018-01-11T12:22:13.775Z,993.99
2018-01-11T12:23:13.767Z,994.00
2018-01-11T12:24:13.758Z,993.96
2018-01-11T12:25:13.733Z,993.97
2018-01-11T12:26:13.737Z,993.99
2018-01-11T12:27:13.700Z,994.02
2018-01-11T12:28:13.687Z,994.02